createdAt,value
2022-11-09T00:01:02.699Z,8.20
2022-11-09T00:03:29.844Z,7.90
2022-11-09T00:05:58.441Z,8.20
2022-11-09T00:08:25.898Z,7.50
2022-11-09T00:10:53.166Z,9.30
2022-11-09T00:13:20.652Z,7.90
2022-11-09T00:15:51.663Z,7.20
2022-11-09T00:18:18.745Z,8.40
2022-11-09T00:20:48.019Z,8.20
2022-11-09T00:23:16.413Z,9.40
2022-11-09T00:25:43.827Z,9.60
2022-11-09T00:28:11.082Z,8.30
2022-11-09T00:30:38.030Z,8.40
2022-11-09T00:33:05.075Z,8.70
2022-11-09T00:35:32.633Z,9.30
2022-11-09T00:37:59.622Z,9.70
2022-11-09T00:40:27.358Z,9.30
2022-11-09T00:42:54.292Z,9.80
2022-11-09T00:45:20.956Z,7.80
2022-11-09T00:47:47.765Z,9.30
2022-11-09T00:50:14.420Z,9.00
2022-11-09T00:52:41.238Z,9.70
2022-11-09T00:55:09.384Z,9.60
2022-11-09T00:57:36.200Z,7.40
2022-11-09T01:00:04.276Z,9.30
2022-11-09T01:02:31.050Z,10.20
2022-11-09T01:04:59.563Z,10.10
2022-11-09T01:07:26.251Z,10.60
2022-11-09T01:09:53.142Z,10.00
2022-11-09T01:12:19.879Z,11.60
2022-11-09T01:14:46.727Z,11.00
2022-11-09T01:17:13.871Z,10.00
2022-11-09T01:19:40.721Z,9.70
2022-11-09T01:22:07.483Z,11.00
2022-11-09T01:24:34.162Z,8.90
2022-11-09T01:27:00.952Z,9.10
2022-11-09T01:29:27.765Z,9.70
2022-11-09T01:31:55.857Z,9.70
2022-11-09T01:34:22.798Z,9.30
2022-11-09T01:36:51.127Z,10.10
2022-11-09T01:39:18.804Z,9.70
2022-11-09T01:41:48.453Z,9.80
2022-11-09T01:44:17.852Z,9.80
2022-11-09T01:46:50.737Z,9.40
2022-11-09T01:49:32.021Z,9.50
2022-11-09T01:52:07.251Z,9.40
2022-11-09T01:54:39.935Z,9.60
2022-11-09T01:57:13.164Z,9.70
2022-11-09T01:59:47.041Z,9.70
2022-11-09T02:02:14.287Z,8.90
2022-11-09T02:04:48.326Z,9.00
2022-11-09T02:07:15.808Z,8.70
2022-11-09T02:09:51.397Z,8.30
2022-11-09T02:12:18.748Z,9.10
2022-11-09T02:14:49.290Z,7.90
2022-11-09T02:17:17.024Z,8.20
2022-11-09T02:19:44.259Z,7.80
2022-11-09T02:22:11.306Z,8.90
2022-11-09T02:24:39.023Z,8.50
2022-11-09T02:27:06.888Z,8.20
2022-11-09T02:29:38.280Z,9.50
2022-11-09T02:32:13.264Z,8.50
2022-11-09T02:34:40.307Z,8.60
2022-11-09T02:37:07.366Z,9.70
2022-11-09T02:39:34.110Z,7.90
2022-11-09T02:42:20.943Z,8.80
2022-11-09T02:44:52.881Z,6.50
2022-11-09T02:47:19.816Z,7.90
2022-11-09T02:49:47.168Z,9.20
2022-11-09T02:52:14.013Z,7.60
2022-11-09T02:54:42.332Z,7.10
2022-11-09T02:57:09.338Z,8.00
2022-11-09T02:59:36.187Z,8.90
2022-11-09T03:02:03.179Z,9.40
2022-11-09T03:04:30.898Z,8.50
2022-11-09T03:06:58.247Z,7.50
2022-11-09T03:09:25.824Z,9.00
2022-11-09T03:11:53.270Z,8.80
2022-11-09T03:14:21.554Z,9.20
2022-11-09T03:16:52.178Z,9.20
2022-11-09T03:19:19.212Z,8.90
2022-11-09T03:21:47.642Z,10.00
2022-11-09T03:24:14.549Z,9.00
2022-11-09T03:26:41.803Z,9.30
2022-11-09T03:29:08.850Z,9.70
2022-11-09T03:31:35.889Z,9.60
2022-11-09T03:34:04.997Z,8.30
2022-11-09T03:36:34.497Z,9.60
2022-11-09T03:39:01.439Z,9.50
2022-11-09T03:41:28.201Z,8.00
2022-11-09T03:43:55.130Z,9.40
2022-11-09T03:46:21.985Z,9.30
2022-11-09T03:48:48.818Z,9.80
2022-11-09T03:51:15.662Z,10.30
2022-11-09T03:53:42.385Z,8.40
2022-11-09T03:56:09.142Z,9.80
2022-11-09T03:58:36.019Z,8.70
2022-11-09T04:01:03.033Z,10.00
2022-11-09T04:03:29.769Z,10.40
2022-11-09T04:05:59.577Z,10.70
2022-11-09T04:08:26.633Z,9.80
2022-11-09T04:10:53.478Z,10.70
2022-11-09T04:13:20.691Z,10.40
2022-11-09T04:15:48.075Z,11.30
2022-11-09T04:18:16.348Z,9.60
2022-11-09T04:20:43.400Z,8.80
2022-11-09T04:23:13.106Z,9.90
2022-11-09T04:25:41.146Z,11.40
2022-11-09T04:28:12.400Z,10.90
2022-11-09T04:30:42.658Z,11.20
2022-11-09T04:33:09.707Z,10.70
2022-11-09T04:35:36.531Z,12.20
2022-11-09T04:38:06.264Z,11.40
2022-11-09T04:40:35.033Z,11.70
2022-11-09T04:43:04.245Z,11.20
2022-11-09T04:45:33.544Z,11.50
2022-11-09T04:48:02.617Z,11.30
2022-11-09T04:50:31.273Z,10.70
2022-11-09T04:53:10.146Z,11.20
2022-11-09T04:55:38.207Z,12.00
2022-11-09T04:58:05.574Z,11.70
2022-11-09T05:00:33.423Z,11.80
2022-11-09T05:03:05.206Z,12.00
2022-11-09T05:05:33.723Z,11.60
2022-11-09T05:08:01.421Z,12.70
2022-11-09T05:10:28.890Z,11.20
2022-11-09T05:13:03.719Z,12.30
2022-11-09T05:15:31.277Z,11.70
2022-11-09T05:17:58.437Z,12.50
2022-11-09T05:20:26.024Z,13.10
2022-11-09T05:23:11.944Z,12.50
2022-11-09T05:25:39.209Z,11.90
2022-11-09T05:28:06.112Z,11.50
2022-11-09T05:30:32.937Z,12.00
2022-11-09T05:32:59.864Z,11.60
2022-11-09T05:35:27.018Z,11.70
2022-11-09T05:37:54.610Z,12.20
2022-11-09T05:40:23.298Z,12.50
2022-11-09T05:42:50.924Z,12.10
2022-11-09T05:45:41.583Z,12.10
2022-11-09T05:48:06.853Z,11.50
2022-11-09T05:50:34.900Z,10.50
2022-11-09T05:53:21.034Z,11.70
2022-11-09T05:55:48.563Z,12.20
2022-11-09T05:58:15.424Z,11.80
2022-11-09T06:00:42.672Z,12.70
2022-11-09T06:03:10.928Z,10.10
2022-11-09T06:05:39.987Z,11.20
2022-11-09T06:08:09.825Z,10.90
2022-11-09T06:10:37.037Z,12.40
2022-11-09T06:13:04.242Z,13.00
2022-11-09T06:15:32.098Z,12.10
2022-11-09T06:17:59.969Z,11.10
2022-11-09T06:20:28.255Z,12.40
2022-11-09T06:23:05.127Z,10.40
2022-11-09T06:25:32.674Z,10.10
2022-11-09T06:28:00.542Z,11.00
2022-11-09T06:30:30.673Z,11.40
2022-11-09T06:33:03.667Z,10.80
2022-11-09T06:35:30.814Z,11.40
2022-11-09T06:37:59.390Z,12.50
2022-11-09T06:40:27.365Z,10.80
2022-11-09T06:42:58.653Z,12.10
2022-11-09T06:45:28.117Z,11.20
2022-11-09T06:47:59.473Z,9.40
2022-11-09T06:50:29.858Z,11.40
2022-11-09T06:53:02.173Z,10.90
2022-11-09T06:55:31.268Z,11.90
2022-11-09T06:57:59.141Z,13.00
2022-11-09T07:00:27.723Z,12.10
2022-11-09T07:02:54.890Z,10.80
2022-11-09T07:05:23.259Z,12.80
2022-11-09T07:07:50.827Z,9.20
2022-11-09T07:10:18.784Z,12.40
2022-11-09T07:12:46.118Z,8.70
2022-11-09T07:15:13.201Z,10.90
2022-11-09T07:17:40.837Z,12.10
2022-11-09T07:20:09.631Z,12.50
2022-11-09T07:22:39.556Z,11.10
2022-11-09T07:25:08.132Z,10.70
2022-11-09T07:27:35.384Z,10.50
2022-11-09T07:30:03.965Z,11.80
2022-11-09T07:33:06.861Z,10.40
2022-11-09T07:35:22.544Z,10.30
2022-11-09T07:37:49.886Z,9.90
2022-11-09T07:40:17.253Z,9.30
2022-11-09T07:42:44.901Z,8.50
2022-11-09T07:45:12.185Z,9.80
2022-11-09T07:47:39.408Z,9.30
2022-11-09T07:50:06.764Z,11.80
2022-11-09T07:52:34.231Z,10.00
2022-11-09T07:55:01.469Z,10.40
2022-11-09T07:57:28.752Z,10.30
2022-11-09T07:59:56.095Z,10.20
2022-11-09T08:02:23.240Z,9.80
2022-11-09T08:04:50.381Z,8.80
2022-11-09T08:07:17.429Z,10.00
2022-11-09T08:09:44.366Z,10.50
2022-11-09T08:12:11.320Z,10.80
2022-11-09T08:14:38.469Z,8.70
2022-11-09T08:17:05.418Z,9.80
2022-11-09T08:19:32.467Z,8.30
2022-11-09T08:21:59.918Z,8.50
2022-11-09T08:24:27.296Z,9.70
2022-11-09T08:26:55.235Z,9.40
2022-11-09T08:29:22.923Z,9.10
2022-11-09T08:31:51.301Z,10.20
2022-11-09T08:34:18.648Z,8.10
2022-11-09T08:36:45.888Z,9.50
2022-11-09T08:39:14.274Z,9.70
2022-11-09T08:41:41.769Z,8.90
2022-11-09T08:44:09.257Z,9.20
2022-11-09T08:46:41.050Z,7.80
2022-11-09T08:49:08.709Z,7.60
2022-11-09T08:51:35.555Z,10.30
2022-11-09T08:54:02.601Z,8.90
2022-11-09T08:56:29.667Z,10.60
2022-11-09T08:58:56.653Z,10.20
2022-11-09T09:01:24.877Z,10.00
2022-11-09T09:03:52.121Z,9.20
2022-11-09T09:06:19.070Z,10.50
2022-11-09T09:08:46.112Z,11.30
2022-11-09T09:11:13.459Z,10.30
2022-11-09T09:13:43.260Z,11.00
2022-11-09T09:16:13.079Z,9.90
2022-11-09T09:18:40.292Z,10.30
2022-11-09T09:21:10.761Z,10.80
2022-11-09T09:23:37.917Z,10.60
2022-11-09T09:26:05.481Z,10.70
2022-11-09T09:28:33.037Z,10.40
2022-11-09T09:31:01.340Z,9.60
2022-11-09T09:33:28.866Z,9.50
2022-11-09T09:35:57.710Z,9.60
2022-11-09T09:38:26.550Z,9.70
2022-11-09T09:41:02.202Z,10.20
2022-11-09T09:43:45.338Z,10.40
2022-11-09T09:46:17.713Z,9.30
2022-11-09T09:49:03.165Z,7.30
2022-11-09T09:51:34.329Z,9.20
2022-11-09T09:54:22.153Z,9.40
2022-11-09T09:56:54.414Z,9.80
2022-11-09T09:59:40.414Z,8.50
2022-11-09T10:02:22.319Z,9.90
2022-11-09T10:04:50.989Z,10.40
2022-11-09T10:08:01.524Z,11.30
2022-11-09T10:10:46.092Z,10.80
2022-11-09T10:14:07.167Z,10.10
2022-11-09T10:16:50.360Z,10.00
2022-11-09T10:19:47.125Z,9.90
2022-11-09T10:22:23.292Z,10.80
2022-11-09T10:25:27.899Z,9.90
2022-11-09T10:27:59.057Z,11.90
2022-11-09T10:30:28.753Z,10.40
2022-11-09T10:33:15.577Z,11.30
2022-11-09T10:35:45.278Z,9.60
2022-11-09T10:38:27.479Z,9.70
2022-11-09T10:41:39.713Z,9.30
2022-11-09T10:44:26.456Z,9.80
2022-11-09T10:47:18.716Z,8.40
2022-11-09T10:50:26.094Z,10.00
2022-11-09T10:53:22.769Z,8.60
2022-11-09T10:56:19.921Z,8.80
2022-11-09T10:59:32.731Z,8.50
2022-11-09T11:02:24.363Z,9.10
2022-11-09T11:05:11.319Z,7.50
2022-11-09T11:07:58.393Z,8.40
2022-11-09T11:10:43.978Z,9.90
2022-11-09T11:13:29.681Z,8.60
2022-11-09T11:16:26.312Z,10.00
2022-11-09T11:19:36.528Z,10.40
2022-11-09T11:22:26.864Z,10.60
2022-11-09T11:25:22.373Z,12.90
2022-11-09T11:28:21.473Z,10.50
2022-11-09T11:31:21.382Z,14.00
2022-11-09T11:34:26.604Z,14.10
2022-11-09T11:37:26.599Z,10.60
2022-11-09T11:40:27.538Z,9.80
2022-11-09T11:43:33.879Z,12.80
2022-11-09T11:46:46.173Z,9.50
2022-11-09T11:49:59.866Z,9.40
2022-11-09T11:52:51.137Z,9.70
2022-11-09T11:55:47.870Z,9.60
2022-11-09T11:59:02.022Z,10.40
2022-11-09T12:02:13.881Z,9.50
2022-11-09T12:05:17.945Z,10.10
2022-11-09T12:08:17.743Z,9.90
2022-11-09T12:11:26.278Z,9.30
2022-11-09T12:14:23.935Z,8.40
2022-11-09T12:17:44.710Z,10.70
2022-11-09T12:20:36.057Z,8.70
2022-11-09T12:23:50.734Z,12.20
2022-11-09T12:27:25.666Z,11.10
2022-11-09T12:30:14.118Z,9.50
2022-11-09T12:33:10.268Z,9.40
2022-11-09T12:36:04.820Z,11.00
2022-11-09T12:39:07.119Z,10.40
2022-11-09T12:41:58.627Z,9.90
2022-11-09T12:45:22.016Z,10.20
2022-11-09T12:48:22.532Z,9.50
2022-11-09T12:51:09.242Z,10.50
2022-11-09T12:53:57.064Z,10.60
2022-11-09T12:57:08.388Z,11.30
2022-11-09T12:59:59.192Z,10.80
2022-11-09T13:02:55.510Z,11.00
2022-11-09T13:05:42.730Z,10.90
2022-11-09T13:08:30.968Z,11.20
2022-11-09T13:11:25.167Z,10.60
2022-11-09T13:14:22.527Z,11.00
2022-11-09T13:17:24.793Z,11.30
2022-11-09T13:20:54.587Z,11.60
2022-11-09T13:23:59.847Z,12.50
2022-11-09T13:26:47.289Z,10.60
2022-11-09T13:29:38.938Z,12.10
2022-11-09T13:32:32.856Z,11.10
2022-11-09T13:35:41.008Z,13.20
2022-11-09T13:38:29.960Z,12.00
2022-11-09T13:41:31.402Z,12.30
2022-11-09T13:44:34.189Z,11.60
2022-11-09T13:47:34.207Z,12.40
2022-11-09T13:50:23.592Z,13.20
2022-11-09T13:53:48.375Z,12.30
2022-11-09T13:56:39.387Z,12.00
2022-11-09T13:59:33.396Z,12.20
2022-11-09T14:02:22.451Z,12.60
2022-11-09T14:05:25.217Z,11.50
2022-11-09T14:08:21.154Z,14.20
2022-11-09T14:11:21.945Z,13.70
2022-11-09T14:14:16.410Z,13.00
2022-11-09T14:17:09.217Z,12.30
2022-11-09T14:20:14.510Z,13.90
2022-11-09T14:23:00.578Z,12.70
2022-11-09T14:25:48.557Z,12.60
2022-11-09T14:28:36.121Z,11.30
2022-11-09T14:31:27.906Z,12.90
2022-11-09T14:34:17.803Z,13.40
2022-11-09T14:37:06.195Z,13.10
2022-11-09T14:39:53.494Z,11.40
2022-11-09T14:42:44.936Z,13.20
2022-11-09T14:45:31.861Z,12.30
2022-11-09T14:48:19.835Z,13.10
2022-11-09T14:51:11.568Z,12.70
2022-11-09T14:54:00.167Z,14.10
2022-11-09T14:56:46.472Z,13.30
2022-11-09T14:59:35.383Z,12.30
2022-11-09T15:02:23.162Z,11.60
2022-11-09T15:05:33.932Z,13.60
2022-11-09T15:08:22.312Z,11.00
2022-11-09T15:11:09.399Z,12.50
2022-11-09T15:13:55.386Z,13.20
2022-11-09T15:16:41.885Z,12.70
2022-11-09T15:19:37.721Z,13.10
2022-11-09T15:22:49.922Z,12.80
2022-11-09T15:25:54.337Z,12.00
2022-11-09T15:28:46.730Z,12.40
2022-11-09T15:31:33.824Z,12.70
2022-11-09T15:34:27.114Z,12.80
2022-11-09T15:37:47.183Z,12.70
2022-11-09T15:40:33.146Z,12.70
2022-11-09T15:43:19.459Z,14.60
2022-11-09T15:46:06.371Z,13.60
2022-11-09T15:48:52.959Z,13.60
2022-11-09T15:51:38.953Z,13.60
2022-11-09T15:54:24.846Z,12.70
2022-11-09T15:57:15.734Z,13.30
2022-11-09T16:00:03.998Z,14.30
2022-11-09T16:02:51.731Z,14.10
2022-11-09T16:05:38.552Z,13.30
2022-11-09T16:08:24.718Z,14.10
2022-11-09T16:11:10.579Z,13.80
2022-11-09T16:14:00.401Z,14.60
2022-11-09T16:16:51.760Z,13.00
2022-11-09T16:19:39.306Z,14.20
2022-11-09T16:22:31.063Z,13.70
2022-11-09T16:25:19.039Z,14.80
2022-11-09T16:28:06.790Z,15.20
2022-11-09T16:30:54.622Z,14.40
2022-11-09T16:33:43.602Z,15.50
2022-11-09T16:36:31.812Z,16.40
2022-11-09T16:39:19.214Z,16.70
2022-11-09T16:42:11.351Z,14.70
2022-11-09T16:45:03.279Z,15.40
2022-11-09T16:47:56.929Z,14.90
2022-11-09T16:50:44.917Z,14.60
2022-11-09T16:53:31.699Z,15.20
2022-11-09T16:56:18.725Z,15.20
2022-11-09T16:59:05.907Z,15.70
2022-11-09T17:01:58.716Z,15.70
2022-11-09T17:04:45.907Z,14.40
2022-11-09T17:07:42.109Z,16.30
2022-11-09T17:10:29.692Z,15.20
2022-11-09T17:13:16.684Z,14.10
2022-11-09T17:16:07.429Z,14.90
2022-11-09T17:18:56.593Z,15.30
2022-11-09T17:21:46.784Z,16.10
2022-11-09T17:24:34.585Z,14.90
2022-11-09T17:27:21.513Z,16.90
2022-11-09T17:30:10.569Z,14.50
2022-11-09T17:32:58.652Z,14.70
2022-11-09T17:35:46.209Z,15.50
2022-11-09T17:38:32.761Z,14.80
2022-11-09T17:41:20.972Z,15.70
2022-11-09T17:44:07.294Z,17.00
2022-11-09T17:46:53.779Z,13.90
2022-11-09T17:49:40.794Z,15.10
2022-11-09T17:52:27.109Z,15.30
2022-11-09T17:55:14.738Z,16.10
2022-11-09T17:58:01.128Z,16.00
2022-11-09T18:00:48.167Z,15.00
2022-11-09T18:03:36.178Z,13.80
2022-11-09T18:06:23.916Z,16.70
2022-11-09T18:12:17.610Z,16.10
2022-11-09T18:15:04.298Z,15.70
2022-11-09T18:17:51.134Z,14.50
2022-11-09T18:20:41.262Z,15.70
2022-11-09T18:23:28.855Z,14.60
2022-11-09T18:26:15.187Z,14.00
2022-11-09T18:29:01.306Z,13.00
2022-11-09T18:31:49.248Z,14.60
2022-11-09T18:34:37.493Z,14.60
2022-11-09T18:37:24.799Z,14.60
2022-11-09T18:40:12.519Z,14.10
2022-11-09T18:43:01.382Z,15.20
2022-11-09T18:46:00.173Z,15.70
2022-11-09T18:48:53.697Z,15.40
2022-11-09T18:51:43.308Z,14.50
2022-11-09T18:54:32.861Z,15.20
2022-11-09T18:57:20.269Z,11.20
2022-11-09T19:00:08.834Z,14.70
2022-11-09T19:02:55.974Z,15.20
2022-11-09T19:05:43.631Z,16.30
2022-11-09T19:08:48.260Z,12.20
2022-11-09T19:11:34.555Z,11.90
2022-11-09T19:14:21.993Z,14.00
2022-11-09T19:17:16.040Z,14.70
2022-11-09T19:20:02.374Z,14.30
2022-11-09T19:22:50.631Z,14.50
2022-11-09T19:25:38.229Z,15.60
2022-11-09T19:28:25.286Z,14.00
2022-11-09T19:31:14.683Z,13.40
2022-11-09T19:34:01.862Z,14.10
2022-11-09T19:36:49.517Z,13.50
2022-11-09T19:39:41.813Z,13.60
2022-11-09T19:42:29.172Z,13.50
2022-11-09T19:45:17.247Z,13.90
2022-11-09T19:48:04.132Z,13.60
2022-11-09T19:50:52.262Z,13.50
2022-11-09T19:53:42.381Z,14.40
2022-11-09T19:56:31.622Z,15.30
2022-11-09T19:59:18.443Z,15.10
2022-11-09T20:02:04.842Z,15.00
2022-11-09T20:04:52.872Z,14.70
2022-11-09T20:07:41.667Z,12.70
2022-11-09T20:10:30.875Z,15.20
2022-11-09T20:13:22.368Z,14.50
2022-11-09T20:16:11.503Z,13.20
2022-11-09T20:18:59.131Z,12.90
2022-11-09T20:21:46.441Z,11.70
2022-11-09T20:24:34.207Z,12.90
2022-11-09T20:27:21.806Z,13.30
2022-11-09T20:30:08.754Z,14.20
2022-11-09T20:32:54.737Z,14.50
2022-11-09T20:35:46.614Z,12.90
2022-11-09T20:38:35.433Z,12.70
2022-11-09T20:41:25.675Z,13.70
2022-11-09T20:44:13.186Z,13.60
2022-11-09T20:46:59.508Z,13.90
2022-11-09T20:49:46.931Z,13.70
2022-11-09T20:52:34.688Z,13.30
2022-11-09T20:55:22.092Z,14.20
2022-11-09T20:58:15.577Z,12.30
2022-11-09T21:01:12.552Z,13.40
2022-11-09T21:03:58.377Z,13.80
2022-11-09T21:06:44.534Z,14.80
2022-11-09T21:09:31.007Z,15.40
2022-11-09T21:12:29.370Z,14.60
2022-11-09T21:15:17.040Z,12.60
2022-11-09T21:18:06.473Z,14.70
2022-11-09T21:20:53.104Z,13.70
2022-11-09T21:23:59.143Z,12.00
2022-11-09T21:27:05.452Z,13.70
2022-11-09T21:29:53.461Z,13.20
2022-11-09T21:32:41.208Z,13.20
2022-11-09T21:35:28.309Z,11.80
2022-11-09T21:38:14.406Z,11.40
2022-11-09T21:41:21.535Z,9.40
2022-11-09T21:44:11.090Z,10.10
2022-11-09T21:46:59.741Z,11.40
2022-11-09T21:49:47.157Z,11.50
2022-11-09T21:52:33.646Z,11.70
2022-11-09T21:55:21.163Z,11.30
2022-11-09T21:58:07.807Z,11.70
2022-11-09T22:00:54.659Z,11.10
2022-11-09T22:03:42.129Z,12.30
2022-11-09T22:06:28.000Z,11.10
2022-11-09T22:09:17.080Z,11.20
2022-11-09T22:12:22.053Z,10.90
2022-11-09T22:15:28.780Z,12.00
2022-11-09T22:18:35.054Z,10.40
2022-11-09T22:21:23.199Z,9.80
2022-11-09T22:24:09.891Z,10.60
2022-11-09T22:26:56.091Z,10.10
2022-11-09T22:29:42.710Z,10.60
2022-11-09T22:32:29.305Z,10.40
2022-11-09T22:35:15.301Z,10.90
2022-11-09T22:38:03.314Z,10.50
2022-11-09T22:40:49.646Z,11.50
2022-11-09T22:43:37.476Z,9.90
2022-11-09T22:46:23.460Z,13.30
2022-11-09T22:49:09.770Z,12.50
2022-11-09T22:51:55.663Z,13.80
2022-11-09T22:54:41.548Z,13.70
2022-11-09T22:57:27.121Z,12.80
2022-11-09T23:00:15.777Z,8.90
2022-11-09T23:03:01.873Z,13.10
2022-11-09T23:05:50.322Z,10.10
2022-11-09T23:08:38.143Z,12.90
2022-11-09T23:11:24.655Z,12.40
2022-11-09T23:14:11.874Z,10.70
2022-11-09T23:16:57.423Z,13.50
2022-11-09T23:19:44.269Z,12.90
2022-11-09T23:22:30.185Z,12.00
2022-11-09T23:25:35.321Z,13.30
2022-11-09T23:28:22.516Z,10.70
2022-11-09T23:31:11.942Z,13.40
2022-11-09T23:33:58.607Z,11.70
2022-11-09T23:36:44.323Z,12.20
2022-11-09T23:39:29.848Z,11.30
2022-11-09T23:42:15.244Z,13.10
2022-11-09T23:45:01.746Z,15.50
2022-11-09T23:47:47.227Z,12.20
2022-11-09T23:50:33.119Z,12.30
2022-11-09T23:53:18.435Z,13.80
2022-11-09T23:56:09.647Z,14.20
2022-11-09T23:58:55.046Z,12.60
